Time;durP1;ratioP1;P1;durP2;ratioP2;P2;SDS_P1;SDS_P2;PMS_P1;PMS_P2;Temp;Humidity;BMP_temperature;BMP_pressure;BME280_temperature;BME280_humidity;BME280_pressure;Samples;Min_cycle;Max_cycle;Signal;HPM_P1;HPM_P2
2022/01/08 00:00:33;;;;;;;;;;;;;;;22.17;27.83;98323.97;5095679;28;959;-75
2022/01/08 00:02:58;;;;;;;;;;;;;;;21.64;28.52;98317.47;5095796;28;985;-75
2022/01/08 00:05:24;;;;;;;;;;;;;;;22.28;27.34;98316.03;5095542;28;958;-75
2022/01/08 00:07:52;;;;;;;;;;;;;;;22.07;27.69;98307.97;5095395;28;997;-75
2022/01/08 00:10:17;;;;;;;;;;;;;;;21.93;28.08;98308.34;5095407;28;968;-75
2022/01/08 00:12:43;;;;;;;;;;;;;;;22.13;27.50;98311.94;5095757;28;1902;-76
2022/01/08 00:15:08;;;;;;;;;;;;;;;22.15;27.38;98317.97;5095250;28;970;-75
2022/01/08 00:17:34;;;;;;;;;;;;;;;21.70;28.22;98315.72;5095399;28;958;-75
2022/01/08 00:20:00;;;;;;;;;;;;;;;22.19;27.32;98315.84;5094928;28;982;-76
2022/01/08 00:22:25;;;;;;;;;;;;;;;22.18;27.44;98314.25;5095526;28;959;-75
2022/01/08 00:24:54;;;;;;;;;;;;;;;21.72;28.30;98310.41;5078048;28;916;-75
2022/01/08 00:27:20;;;;;;;;;;;;;;;21.84;27.87;98312.56;5095527;28;957;-76
2022/01/08 00:29:45;;;;;;;;;;;;;;;22.10;27.29;98309.94;5094572;28;982;-75
2022/01/08 00:32:10;;;;;;;;;;;;;;;22.18;27.45;98314.25;5064818;28;1100;-75
2022/01/08 00:34:36;;;;;;;;;;;;;;;22.04;27.58;98309.69;5054073;28;1991;-74
2022/01/08 00:37:01;;;;;;;;;;;;;;;22.65;27.02;98313.91;5071556;28;950;-75
2022/01/08 00:39:27;;;;;;;;;;;;;;;22.90;26.98;98303.94;5054414;28;1003;-75
2022/01/08 00:41:52;;;;;;;;;;;;;;;22.52;27.27;98304.50;5055250;28;1152;-75
2022/01/08 00:44:18;;;;;;;;;;;;;;;22.00;27.79;98291.16;5054484;28;967;-75
2022/01/08 00:46:44;;;;;;;;;;;;;;;21.94;27.38;98253.28;5055388;28;985;-75
2022/01/08 00:49:09;;;;;;;;;;;;;;;22.28;27.46;98290.53;5054363;28;941;-75
2022/01/08 00:51:34;;;;;;;;;;;;;;;21.93;28.04;98288.50;5054805;28;1326;-75
2022/01/08 00:54:00;;;;;;;;;;;;;;;21.79;28.56;98281.94;5056013;28;1909;-75
2022/01/08 00:56:25;;;;;;;;;;;;;;;22.18;28.11;98288.75;5057467;28;953;-76
2022/01/08 00:58:51;;;;;;;;;;;;;;;22.28;28.00;98279.19;5086904;28;1149;-75
2022/01/08 01:01:16;;;;;;;;;;;;;;;22.18;27.79;98277.41;5057216;28;966;-75
2022/01/08 01:03:42;;;;;;;;;;;;;;;22.06;28.41;98267.53;5056515;28;1010;-75
2022/01/08 01:06:07;;;;;;;;;;;;;;;21.68;29.03;98275.72;5057703;28;928;-75
2022/01/08 01:08:33;;;;;;;;;;;;;;;22.27;27.86;98283.22;5056315;28;1065;-75
2022/01/08 01:10:58;;;;;;;;;;;;;;;22.25;27.82;98280.06;5074415;28;1138;-75
2022/01/08 01:13:24;;;;;;;;;;;;;;;22.06;28.14;98273.19;5033429;28;1975;-75
2022/01/08 01:15:49;;;;;;;;;;;;;;;21.71;28.61;98269.19;5034878;28;933;-75
2022/01/08 01:18:15;;;;;;;;;;;;;;;21.20;29.83;98274.28;5033221;28;1056;-75
2022/01/08 01:20:43;;;;;;;;;;;;;;;22.18;28.00;98268.13;5034332;28;1000;-75
2022/01/08 01:23:12;;;;;;;;;;;;;;;21.84;28.66;98269.28;5033883;28;945;-75
2022/01/08 01:26:00;;;;;;;;;;;;;;;21.93;28.85;98263.00;5034042;28;1099;-75
2022/01/08 01:47:34;;;;;;;;;;;;;;;22.24;27.75;98230.28;4936829;29;1082;-76
2022/01/08 01:49:59;;;;;;;;;;;;;;;22.01;28.16;98233.25;4938893;29;1057;-75
2022/01/08 01:52:25;;;;;;;;;;;;;;;21.95;28.45;98221.66;4956296;29;956;-75
2022/01/08 01:54:50;;;;;;;;;;;;;;;21.87;28.72;98217.41;4955369;29;1977;-76
2022/01/08 01:57:17;;;;;;;;;;;;;;;22.41;27.69;98219.72;4941328;29;1013;-75
2022/01/08 01:59:43;;;;;;;;;;;;;;;22.20;28.01;98215.41;4936466;29;953;-75
2022/01/08 02:02:11;;;;;;;;;;;;;;;22.32;27.67;98213.88;4971415;28;1187;-75
2022/01/08 02:04:37;;;;;;;;;;;;;;;22.39;27.37;98207.25;4955075;28;982;-75
2022/01/08 02:07:02;;;;;;;;;;;;;;;22.34;27.89;98203.69;4956217;28;962;-75
2022/01/08 02:09:28;;;;;;;;;;;;;;;21.77;28.46;98192.97;4973095;28;1065;-76
2022/01/08 02:11:54;;;;;;;;;;;;;;;21.79;28.63;98191.28;4972644;28;1009;-75
2022/01/08 02:14:19;;;;;;;;;;;;;;;22.25;27.66;98189.34;4958735;28;1914;-75
2022/01/08 02:16:44;;;;;;;;;;;;;;;22.09;28.20;98184.47;4959524;28;1117;-75
2022/01/08 02:19:10;;;;;;;;;;;;;;;21.79;28.36;98179.97;4939990;29;996;-75
2022/01/08 02:21:35;;;;;;;;;;;;;;;21.81;28.39;98185.16;4960070;28;1049;-74
2022/01/08 02:24:01;;;;;;;;;;;;;;;22.13;27.78;98198.59;4978128;28;990;-75
2022/01/08 02:26:26;;;;;;;;;;;;;;;22.28;27.82;98199.03;4978870;28;1052;-76
2022/01/08 02:28:52;;;;;;;;;;;;;;;21.70;28.73;98191.09;4977551;28;964;-75
2022/01/08 02:31:23;;;;;;;;;;;;;;;22.17;28.04;98193.59;5022870;28;1092;-75
2022/01/08 02:33:49;;;;;;;;;;;;;;;22.19;27.58;98191.13;5021456;28;1976;-75
2022/01/08 02:36:15;;;;;;;;;;;;;;;21.92;28.21;98193.44;4998428;28;1013;-75
2022/01/08 02:38:41;;;;;;;;;;;;;;;21.78;28.86;98184.03;4996709;28;958;-75
2022/01/08 02:41:07;;;;;;;;;;;;;;;22.15;27.83;98179.09;4978634;28;1122;-75
2022/01/08 02:43:41;;;;;;;;;;;;;;;22.39;27.69;98176.06;5022824;28;1028;-75
2022/01/08 02:46:06;;;;;;;;;;;;;;;22.07;27.94;98166.31;5022360;28;1011;-75
2022/01/08 02:48:32;;;;;;;;;;;;;;;21.85;28.54;98171.72;5036242;28;1013;-75
2022/01/08 02:50:57;;;;;;;;;;;;;;;22.23;27.84;98163.50;5037081;28;1016;-75
2022/01/08 02:53:23;;;;;;;;;;;;;;;22.10;27.89;98159.75;5036356;28;1914;-75
2022/01/08 02:55:48;;;;;;;;;;;;;;;21.99;28.20;98156.41;5037107;28;971;-75
2022/01/08 02:58:14;;;;;;;;;;;;;;;21.32;29.66;98157.59;5036177;28;934;-75
2022/01/08 03:00:39;;;;;;;;;;;;;;;22.10;27.99;98169.09;5036658;28;996;-75
2022/01/08 03:03:05;;;;;;;;;;;;;;;22.24;27.94;98165.09;4996693;28;929;-75
2022/01/08 03:05:30;;;;;;;;;;;;;;;21.76;28.85;98169.53;4996830;28;1077;-75
2022/01/08 03:07:56;;;;;;;;;;;;;;;22.22;27.77;98170.38;4996679;28;1014;-75
2022/01/08 03:10:21;;;;;;;;;;;;;;;22.22;27.81;98167.56;4997081;28;947;-75
2022/01/08 03:12:47;;;;;;;;;;;;;;;22.15;28.06;98170.59;5030724;28;1985;-75
2022/01/08 03:15:16;;;;;;;;;;;;;;;22.32;27.98;98183.47;5036306;28;992;-75
2022/01/08 03:17:41;;;;;;;;;;;;;;;21.81;28.77;98176.66;5056043;28;1096;-75
2022/01/08 03:20:10;;;;;;;;;;;;;;;21.83;28.48;98180.66;5038318;28;990;-75
2022/01/08 03:22:36;;;;;;;;;;;;;;;22.21;28.00;98171.63;5023883;28;1152;-75
2022/01/08 03:25:01;;;;;;;;;;;;;;;22.27;27.81;98186.84;5010860;28;1132;-77
2022/01/08 03:27:27;;;;;;;;;;;;;;;22.02;28.31;98176.16;5006927;28;1227;-74
2022/01/08 03:29:52;;;;;;;;;;;;;;;21.94;28.29;98176.78;5004522;28;1218;-74
2022/01/08 03:32:18;;;;;;;;;;;;;;;22.25;27.79;98178.00;5006584;28;1250;-74
2022/01/08 03:34:43;;;;;;;;;;;;;;;22.15;28.14;98162.09;5008250;28;1968;-75
2022/01/08 03:37:09;;;;;;;;;;;;;;;22.24;27.71;98159.41;4999460;28;968;-76
2022/01/08 03:39:34;;;;;;;;;;;;;;;21.99;28.43;98159.25;5020257;28;1035;-75
2022/01/08 03:42:00;;;;;;;;;;;;;;;22.07;28.46;98163.47;5056075;28;1075;-75
2022/01/08 03:44:25;;;;;;;;;;;;;;;22.35;27.46;98154.25;5055071;28;983;-75
2022/01/08 03:46:51;;;;;;;;;;;;;;;22.19;27.81;98151.47;5056046;28;1102;-75
2022/01/08 03:49:24;;;;;;;;;;;;;;;22.06;28.09;98153.38;5040173;28;1030;-75
2022/01/08 03:51:53;;;;;;;;;;;;;;;22.07;28.15;98149.31;5036253;28;973;-75
2022/01/08 03:54:19;;;;;;;;;;;;;;;22.34;27.65;98147.00;5035286;28;1902;-75
2022/01/08 03:56:44;;;;;;;;;;;;;;;22.20;27.84;98153.03;5036235;28;987;-75
2022/01/08 03:59:10;;;;;;;;;;;;;;;22.10;27.92;98154.09;5034840;28;1028;-75
2022/01/08 04:01:35;;;;;;;;;;;;;;;21.59;28.84;98153.75;5041212;28;977;-75
2022/01/08 04:04:01;;;;;;;;;;;;;;;22.10;28.22;98151.25;5074753;28;1016;-75
2022/01/08 04:06:26;;;;;;;;;;;;;;;22.18;27.58;98152.69;5075866;28;908;-75
2022/01/08 04:08:57;;;;;;;;;;;;;;;22.04;28.10;98158.72;5074665;28;1071;-76
2022/01/08 04:11:23;;;;;;;;;;;;;;;22.04;28.10;98145.34;5055539;28;1063;-75
2022/01/08 04:13:48;;;;;;;;;;;;;;;22.10;28.27;98149.25;5037659;28;1902;-75
2022/01/08 04:16:19;;;;;;;;;;;;;;;21.46;29.02;98145.16;5038799;28;920;-75
2022/01/08 04:18:44;;;;;;;;;;;;;;;21.75;28.65;98144.47;5053846;28;900;-75
2022/01/08 04:23:59;;;;;;;;;;;;;;;22.14;27.85;98140.66;4994728;28;1143;-75
2022/01/08 04:26:25;;;;;;;;;;;;;;;21.66;28.83;98141.44;5014057;28;1013;-75
2022/01/08 04:28:52;;;;;;;;;;;;;;;21.54;29.06;98129.59;5013992;28;1008;-75
2022/01/08 04:31:18;;;;;;;;;;;;;;;22.08;28.07;98143.22;4995997;28;1018;-75
2022/01/08 04:33:43;;;;;;;;;;;;;;;22.04;28.07;98136.03;4994164;28;1979;-75
2022/01/08 04:36:09;;;;;;;;;;;;;;;21.85;28.30;98127.19;4996115;28;960;-75
2022/01/08 04:38:34;;;;;;;;;;;;;;;22.08;27.70;98125.41;4994545;28;990;-75
2022/01/08 04:41:00;;;;;;;;;;;;;;;21.73;28.45;98118.63;4979513;28;1085;-75
2022/01/08 04:43:25;;;;;;;;;;;;;;;21.71;28.59;98127.56;5031475;28;985;-75
2022/01/08 04:45:51;;;;;;;;;;;;;;;22.00;27.96;98121.16;5035419;28;1015;-75
2022/01/08 04:48:17;;;;;;;;;;;;;;;22.10;27.88;98114.41;5034567;28;983;-76
2022/01/08 04:50:42;;;;;;;;;;;;;;;22.01;28.31;98111.41;5034708;28;1122;-75
2022/01/08 04:53:08;;;;;;;;;;;;;;;22.30;27.73;98115.09;5034086;28;1985;-75
2022/01/08 04:55:33;;;;;;;;;;;;;;;22.16;27.91;98114.69;5054407;28;994;-75
2022/01/08 04:57:59;;;;;;;;;;;;;;;21.42;29.01;98104.81;5070311;28;984;-75
2022/01/08 05:00:24;;;;;;;;;;;;;;;21.74;28.40;98108.88;5070913;28;1059;-75
2022/01/08 05:02:50;;;;;;;;;;;;;;;22.04;27.87;98107.72;5081120;28;1000;-75
2022/01/08 05:05:15;;;;;;;;;;;;;;;21.84;28.09;98097.28;5114949;28;980;-75
2022/01/08 05:07:40;;;;;;;;;;;;;;;21.87;28.56;98103.31;5094709;28;1056;-76
2022/01/08 05:10:06;;;;;;;;;;;;;;;22.16;27.53;98098.50;5053814;28;932;-75
2022/01/08 05:12:32;;;;;;;;;;;;;;;21.84;28.37;98108.59;5034040;28;1037;-75
2022/01/08 05:14:57;;;;;;;;;;;;;;;21.67;28.68;98098.53;5033457;28;2242;-75
2022/01/08 05:17:30;;;;;;;;;;;;;;;22.18;27.50;98095.22;5034331;28;979;-76
2022/01/08 05:19:59;;;;;;;;;;;;;;;22.29;27.57;98099.34;5034093;28;1087;-75
2022/01/08 05:22:28;;;;;;;;;;;;;;;22.00;27.76;98084.34;5034276;28;921;-76
2022/01/08 05:24:53;;;;;;;;;;;;;;;21.82;28.42;98082.78;5034038;28;1119;-75
2022/01/08 05:27:19;;;;;;;;;;;;;;;22.23;27.61;98095.47;5018806;28;969;-76
2022/01/08 05:29:44;;;;;;;;;;;;;;;22.34;27.38;98084.63;5014304;28;1020;-75
2022/01/08 05:32:16;;;;;;;;;;;;;;;22.14;27.71;98075.47;5014423;28;1002;-76
2022/01/08 05:34:42;;;;;;;;;;;;;;;22.42;27.07;98076.69;5013520;28;1923;-76
2022/01/08 05:37:07;;;;;;;;;;;;;;;22.36;27.44;98081.34;5015122;28;1059;-76
2022/01/08 05:39:34;;;;;;;;;;;;;;;22.00;27.81;98076.63;5030814;28;1024;-75
2022/01/08 05:41:59;;;;;;;;;;;;;;;22.45;26.89;98077.88;5048963;28;1077;-75
2022/01/08 05:44:24;;;;;;;;;;;;;;;22.42;26.98;98090.09;5016015;28;992;-75
2022/01/08 05:46:50;;;;;;;;;;;;;;;22.23;27.20;98084.13;5018848;28;1011;-75
2022/01/08 05:49:17;;;;;;;;;;;;;;;21.70;28.42;98086.31;5017696;28;984;-75
2022/01/08 05:51:43;;;;;;;;;;;;;;;22.23;27.42;98089.81;5018619;28;979;-75
2022/01/08 05:54:08;;;;;;;;;;;;;;;21.77;28.14;98086.16;5017615;28;1983;-75
2022/01/08 05:56:34;;;;;;;;;;;;;;;22.26;27.42;98083.22;5018690;28;982;-76
2022/01/08 05:59:01;;;;;;;;;;;;;;;21.96;28.13;98080.78;5017361;28;1082;-75
2022/01/08 06:01:27;;;;;;;;;;;;;;;22.32;27.08;98092.78;5018526;28;928;-75
2022/01/08 06:03:53;;;;;;;;;;;;;;;21.99;27.65;98088.41;5017767;28;1058;-76
2022/01/08 06:06:18;;;;;;;;;;;;;;;21.21;28.51;98043.84;5034613;28;1027;-75
2022/01/08 06:08:43;;;;;;;;;;;;;;;22.19;27.23;98088.31;5037222;28;950;-75
2022/01/08 06:11:09;;;;;;;;;;;;;;;21.92;27.78;98085.78;5038284;28;951;-75
2022/01/08 06:13:34;;;;;;;;;;;;;;;21.70;28.23;98096.84;5051777;28;1985;-75
2022/01/08 06:16:00;;;;;;;;;;;;;;;22.06;27.60;98091.03;5074870;28;1352;-75
2022/01/08 06:18:25;;;;;;;;;;;;;;;22.46;27.16;98085.13;5111582;28;1164;-75
2022/01/08 06:20:51;;;;;;;;;;;;;;;22.16;27.38;98072.97;5080751;28;985;-75
2022/01/08 06:23:16;;;;;;;;;;;;;;;22.35;27.04;98089.06;5079067;28;1066;-75
2022/01/08 06:25:43;;;;;;;;;;;;;;;22.23;27.16;98086.19;5079707;28;922;-75
2022/01/08 06:28:15;;;;;;;;;;;;;;;21.70;28.34;98086.31;5079643;28;909;-76
2022/01/08 06:30:40;;;;;;;;;;;;;;;21.83;28.04;98078.69;5080344;28;941;-75
2022/01/08 06:33:06;;;;;;;;;;;;;;;22.32;27.19;98092.78;5079453;28;1972;-75
2022/01/08 06:35:31;;;;;;;;;;;;;;;21.76;28.33;98078.91;5079798;28;908;-75
2022/01/08 06:37:57;;;;;;;;;;;;;;;22.16;27.51;98090.00;5079169;28;920;-75
2022/01/08 06:40:22;;;;;;;;;;;;;;;22.45;27.16;98083.53;5079889;28;1225;-75
2022/01/08 06:42:48;;;;;;;;;;;;;;;22.04;27.64;98083.00;5079857;28;988;-76
2022/01/08 06:45:14;;;;;;;;;;;;;;;22.36;27.15;98076.47;5111787;28;858;-75
2022/01/08 06:47:42;;;;;;;;;;;;;;;22.36;26.78;98082.13;5079756;28;900;-75
2022/01/08 06:50:07;;;;;;;;;;;;;;;22.00;27.66;98085.13;5109919;28;1029;-75
2022/01/08 06:52:33;;;;;;;;;;;;;;;21.31;29.10;98076.78;5080069;28;913;-76
2022/01/08 06:54:58;;;;;;;;;;;;;;;22.13;27.46;98073.91;5077646;28;1992;-75
2022/01/08 06:57:24;;;;;;;;;;;;;;;22.24;27.46;98073.59;5079815;28;951;-75
2022/01/08 06:59:49;;;;;;;;;;;;;;;22.48;27.05;98082.63;5078977;28;916;-75
2022/01/08 07:02:15;;;;;;;;;;;;;;;21.46;28.86;98065.13;5111248;28;1033;-75
2022/01/08 07:04:40;;;;;;;;;;;;;;;22.13;27.53;98062.56;5078390;28;920;-75
2022/01/08 07:07:06;;;;;;;;;;;;;;;21.44;28.66;98067.56;5079225;28;916;-75
2022/01/08 07:09:31;;;;;;;;;;;;;;;21.64;28.75;98065.44;5078398;28;899;-75
2022/01/08 07:11:56;;;;;;;;;;;;;;;22.09;27.55;98068.28;5079640;28;1025;-75
2022/01/08 07:14:22;;;;;;;;;;;;;;;22.28;27.11;98069.41;5110103;28;1988;-75
2022/01/08 07:16:49;;;;;;;;;;;;;;;22.41;27.05;98060.16;5078944;28;970;-75
2022/01/08 07:19:14;;;;;;;;;;;;;;;21.75;28.31;98056.66;5078443;28;924;-76
2022/01/08 07:21:40;;;;;;;;;;;;;;;22.08;27.79;98054.56;5079067;28;943;-75
2022/01/08 07:24:05;;;;;;;;;;;;;;;22.36;27.12;98059.44;5078399;28;888;-76
2022/01/08 07:26:31;;;;;;;;;;;;;;;21.39;28.66;98053.94;5078794;28;900;-75
2022/01/08 07:28:56;;;;;;;;;;;;;;;22.07;27.61;98056.63;5078258;28;854;-75
2022/01/08 07:31:22;;;;;;;;;;;;;;;22.15;27.80;98054.41;5079253;28;942;-75
2022/01/08 07:33:49;;;;;;;;;;;;;;;21.79;28.10;98055.34;5077772;28;1910;-75
2022/01/08 07:36:19;;;;;;;;;;;;;;;21.67;28.33;98053.22;5078894;28;932;-75
2022/01/08 07:38:44;;;;;;;;;;;;;;;21.83;28.14;98044.72;5077612;28;984;-75
2022/01/08 07:41:10;;;;;;;;;;;;;;;22.30;27.55;98049.91;5079372;28;1096;-75
2022/01/08 07:43:35;;;;;;;;;;;;;;;21.81;27.91;98041.53;5077583;28;886;-75
2022/01/08 07:46:00;;;;;;;;;;;;;;;22.25;27.29;98044.78;5079191;28;928;-75
2022/01/08 07:48:26;;;;;;;;;;;;;;;22.27;27.34;98038.66;5077074;28;899;-75
2022/01/08 07:50:51;;;;;;;;;;;;;;;22.19;27.45;98035.25;5079258;28;909;-76
2022/01/08 07:53:18;;;;;;;;;;;;;;;22.41;27.43;98032.59;5077538;28;1967;-75
2022/01/08 07:55:44;;;;;;;;;;;;;;;22.32;27.14;98040.94;5078834;28;915;-75
2022/01/08 07:58:09;;;;;;;;;;;;;;;22.24;27.37;98046.03;5077447;28;908;-75
2022/01/08 08:00:35;;;;;;;;;;;;;;;22.05;28.07;98033.56;5059679;28;957;-75
2022/01/08 08:03:00;;;;;;;;;;;;;;;21.55;28.75;98036.94;5077557;28;995;-76
2022/01/08 08:05:26;;;;;;;;;;;;;;;22.12;27.79;98043.16;5109350;28;994;-76
2022/01/08 08:07:51;;;;;;;;;;;;;;;22.25;27.54;98044.78;5077245;28;902;-76
2022/01/08 08:10:22;;;;;;;;;;;;;;;21.96;28.12;98030.59;5077935;28;882;-76
2022/01/08 08:12:47;;;;;;;;;;;;;;;21.89;28.15;98030.78;5077889;28;1967;-76
2022/01/08 08:15:15;;;;;;;;;;;;;;;22.11;28.00;98031.03;5109122;28;952;-76
2022/01/08 08:17:40;;;;;;;;;;;;;;;22.37;27.12;98031.91;5115868;28;1065;-76
2022/01/08 08:20:06;;;;;;;;;;;;;;;21.83;28.57;98021.25;5115069;28;1465;-76
2022/01/08 08:22:32;;;;;;;;;;;;;;;21.78;28.37;98016.13;5105937;28;1239;-76
2022/01/08 08:24:57;;;;;;;;;;;;;;;22.24;27.50;98023.38;5105474;28;1347;-76
2022/01/08 08:27:23;;;;;;;;;;;;;;;22.05;27.75;98010.13;5107497;28;1244;-76
2022/01/08 08:29:48;;;;;;;;;;;;;;;21.29;29.36;98005.63;5074467;28;1078;-76
2022/01/08 08:32:13;;;;;;;;;;;;;;;22.04;28.23;97997.19;5075097;28;926;-76
2022/01/08 08:34:39;;;;;;;;;;;;;;;22.15;27.85;97991.25;5074308;28;1905;-76
2022/01/08 08:37:04;;;;;;;;;;;;;;;21.98;28.00;97979.16;5074560;28;1010;-76
2022/01/08 08:39:30;;;;;;;;;;;;;;;21.91;28.36;97987.84;5074022;28;1121;-76
2022/01/08 08:41:55;;;;;;;;;;;;;;;22.30;27.81;97987.56;5075263;28;1118;-76
2022/01/08 08:44:22;;;;;;;;;;;;;;;21.78;28.41;97979.31;5041268;28;1043;-76
2022/01/08 08:46:47;;;;;;;;;;;;;;;21.89;28.62;97984.69;5075568;28;1052;-76
2022/01/08 08:49:13;;;;;;;;;;;;;;;22.22;27.56;97974.81;4985474;28;964;-76
2022/01/08 08:51:38;;;;;;;;;;;;;;;22.02;28.31;97965.66;4976407;28;1091;-76
2022/01/08 08:54:04;;;;;;;;;;;;;;;22.06;28.03;97960.69;4975761;28;1997;-76
2022/01/08 08:56:30;;;;;;;;;;;;;;;22.01;28.15;97961.25;4976473;28;965;-74
2022/01/08 08:58:56;;;;;;;;;;;;;;;22.26;27.82;97952.06;4975974;28;1082;-74
2022/01/08 09:01:21;;;;;;;;;;;;;;;22.18;27.84;97950.69;5024095;28;1015;-74
2022/01/08 09:03:47;;;;;;;;;;;;;;;21.47;29.33;97937.28;5034416;28;1052;-75
2022/01/08 09:06:13;;;;;;;;;;;;;;;22.18;27.82;97937.31;5035391;28;1379;-76
2022/01/08 09:08:38;;;;;;;;;;;;;;;22.22;27.92;97946.47;5033860;28;996;-76
2022/01/08 09:11:04;;;;;;;;;;;;;;;22.27;27.99;97940.25;5031541;28;1143;-75
2022/01/08 09:13:29;;;;;;;;;;;;;;;21.96;28.51;97939.94;5014363;28;1906;-75
2022/01/08 09:15:55;;;;;;;;;;;;;;;22.17;27.79;97932.88;4999426;28;953;-76
2022/01/08 09:18:23;;;;;;;;;;;;;;;21.67;28.47;97917.31;5013883;28;963;-75
2022/01/08 09:20:49;;;;;;;;;;;;;;;21.95;28.15;97920.56;5030043;28;1009;-75
2022/01/08 09:23:14;;;;;;;;;;;;;;;22.28;27.88;97916.34;5033665;28;924;-75
2022/01/08 09:25:39;;;;;;;;;;;;;;;22.11;27.98;97914.84;5038064;28;1169;-75
2022/01/08 09:28:05;;;;;;;;;;;;;;;21.91;28.53;97902.88;5073981;28;981;-75
2022/01/08 09:30:30;;;;;;;;;;;;;;;22.21;27.91;97905.22;5075295;28;1000;-75
2022/01/08 09:32:56;;;;;;;;;;;;;;;22.30;27.47;97902.53;5059606;28;1985;-75
2022/01/08 09:35:22;;;;;;;;;;;;;;;22.08;28.08;97899.53;5054840;28;1142;-75
2022/01/08 09:37:48;;;;;;;;;;;;;;;21.81;28.59;97899.91;5054066;28;1010;-75
2022/01/08 09:40:14;;;;;;;;;;;;;;;22.02;28.09;97894.84;5054287;28;1139;-76
2022/01/08 09:42:41;;;;;;;;;;;;;;;22.25;28.12;97883.25;5054946;28;916;-75
2022/01/08 09:45:06;;;;;;;;;;;;;;;22.33;27.85;97884.63;5056208;28;1491;-76
2022/01/08 09:47:32;;;;;;;;;;;;;;;22.28;27.71;97875.88;5074331;28;1239;-75
2022/01/08 09:49:57;;;;;;;;;;;;;;;22.29;27.44;97866.91;5073401;28;1292;-75
2022/01/08 09:52:23;;;;;;;;;;;;;;;22.03;28.35;97863.25;5074883;28;1013;-75
2022/01/08 09:54:48;;;;;;;;;;;;;;;21.93;28.41;97860.75;5074356;28;1906;-75
2022/01/08 09:57:14;;;;;;;;;;;;;;;22.23;27.75;97867.94;5077044;28;986;-75
2022/01/08 09:59:39;;;;;;;;;;;;;;;22.25;28.01;97863.41;5076386;28;914;-76
2022/01/08 10:02:05;;;;;;;;;;;;;;;21.95;28.28;97858.22;5076979;28;930;-75
2022/01/08 10:04:37;;;;;;;;;;;;;;;21.97;28.36;97850.09;5076175;28;947;-75
2022/01/08 10:07:18;;;;;;;;;;;;;;;22.25;27.94;97849.22;5076365;28;1120;-75
2022/01/08 10:10:01;;;;;;;;;;;;;;;22.20;27.88;97846.97;5093265;28;1458;-75
2022/01/08 10:12:42;;;;;;;;;;;;;;;21.83;28.58;97840.78;5094115;28;1296;-75
2022/01/08 10:17:52;;;;;;;;;;;;;;;22.02;28.07;97833.34;5033841;28;951;-75
2022/01/08 10:20:49;;;;;;;;;;;;;;;22.02;28.16;97819.16;5013380;28;1202;-75
2022/01/08 10:23:19;;;;;;;;;;;;;;;22.24;27.61;97813.63;4974311;28;1026;-75
2022/01/08 10:25:54;;;;;;;;;;;;;;;22.18;28.00;97814.66;4974534;28;1457;-75
2022/01/08 10:28:31;;;;;;;;;;;;;;;21.92;28.63;97808.16;4974262;28;1071;-75
2022/01/08 10:31:05;;;;;;;;;;;;;;;22.34;27.59;97798.31;4962182;28;954;-75
2022/01/08 10:33:30;;;;;;;;;;;;;;;22.25;27.81;97795.38;4977800;28;1906;-75
2022/01/08 10:35:56;;;;;;;;;;;;;;;22.22;27.77;97796.28;4978980;28;969;-75
2022/01/08 10:38:21;;;;;;;;;;;;;;;22.06;28.31;97796.38;4977348;28;1018;-75
2022/01/08 10:40:47;;;;;;;;;;;;;;;22.05;28.40;97783.44;4920047;29;1121;-75
2022/01/08 10:43:22;;;;;;;;;;;;;;;22.19;27.86;97783.03;4958820;29;1029;-75
2022/01/08 10:45:47;;;;;;;;;;;;;;;22.23;27.76;97771.59;4973822;28;973;-75
2022/01/08 10:48:13;;;;;;;;;;;;;;;22.02;28.37;97776.66;4996839;28;954;-75
2022/01/08 10:50:38;;;;;;;;;;;;;;;21.60;29.22;97767.44;5000643;28;1689;-75
2022/01/08 10:53:04;;;;;;;;;;;;;;;22.03;28.34;97757.63;5016934;28;1902;-75
2022/01/08 10:55:30;;;;;;;;;;;;;;;22.14;27.94;97762.97;5017663;28;939;-76
2022/01/08 10:57:55;;;;;;;;;;;;;;;22.19;27.99;97760.34;5017065;28;930;-75
2022/01/08 11:00:22;;;;;;;;;;;;;;;22.19;28.32;97754.69;5081986;28;988;-75
2022/01/08 11:02:48;;;;;;;;;;;;;;;22.38;27.85;97752.03;5096982;28;997;-75
2022/01/08 11:05:13;;;;;;;;;;;;;;;22.10;28.06;97758.19;5096569;28;1014;-75
2022/01/08 11:07:41;;;;;;;;;;;;;;;22.23;27.96;97749.69;5056802;28;1003;-75
2022/01/08 11:10:16;;;;;;;;;;;;;;;22.30;27.96;97752.28;5039955;28;1058;-75
2022/01/08 11:12:43;;;;;;;;;;;;;;;22.14;28.32;97740.31;5056148;28;1023;-75
2022/01/08 11:17:42;;;;;;;;;;;;;;;21.94;28.66;97754.69;5056274;28;968;-74
2022/01/08 11:20:07;;;;;;;;;;;;;;;22.16;27.92;97755.59;5056305;28;958;-75
2022/01/08 11:22:33;;;;;;;;;;;;;;;22.06;27.99;97745.38;5039311;28;902;-75
2022/01/08 11:25:03;;;;;;;;;;;;;;;21.77;28.86;97745.50;5036230;28;948;-75
2022/01/08 11:27:47;;;;;;;;;;;;;;;22.26;27.86;97743.09;5036929;28;944;-75
2022/01/08 11:30:14;;;;;;;;;;;;;;;22.16;27.86;97744.25;5036259;28;1114;-76
2022/01/08 11:32:40;;;;;;;;;;;;;;;22.18;28.13;97743.81;5052742;28;1043;-75
2022/01/08 11:35:06;;;;;;;;;;;;;;;22.09;28.10;97733.13;5035867;28;1910;-75
2022/01/08 11:37:31;;;;;;;;;;;;;;;21.81;28.79;97735.66;5076093;28;1275;-75
2022/01/08 11:39:58;;;;;;;;;;;;;;;21.72;29.06;97744.03;5075227;28;1048;-75
2022/01/08 11:42:23;;;;;;;;;;;;;;;22.10;28.09;97740.38;5058893;28;986;-75
2022/01/08 11:44:49;;;;;;;;;;;;;;;22.22;27.96;97742.44;5075686;28;968;-75
2022/01/08 11:47:16;;;;;;;;;;;;;;;22.07;28.06;97729.94;5035805;28;990;-74
2022/01/08 11:49:41;;;;;;;;;;;;;;;22.22;27.91;97733.94;5035286;28;1077;-75
2022/01/08 11:52:21;;;;;;;;;;;;;;;21.69;29.16;97733.59;5036170;28;950;-75
2022/01/08 11:54:46;;;;;;;;;;;;;;;22.18;28.05;97730.44;5035672;28;1910;-75
2022/01/08 11:57:16;;;;;;;;;;;;;;;22.07;28.06;97727.09;5016199;28;1307;-76
2022/01/08 11:59:42;;;;;;;;;;;;;;;22.10;28.18;97720.53;5015799;28;1096;-75
2022/01/08 12:02:08;;;;;;;;;;;;;;;21.77;28.80;97722.84;5035773;28;1010;-76
2022/01/08 12:04:34;;;;;;;;;;;;;;;22.03;28.32;97715.91;5054984;28;1055;-75
2022/01/08 12:07:18;;;;;;;;;;;;;;;22.33;27.74;97713.75;5055942;28;951;-75
2022/01/08 12:09:43;;;;;;;;;;;;;;;22.12;28.09;97712.41;5015623;28;998;-75
2022/01/08 12:12:09;;;;;;;;;;;;;;;22.17;28.06;97706.16;5035704;28;998;-75
2022/01/08 12:14:34;;;;;;;;;;;;;;;21.78;28.70;97702.56;5035104;28;1997;-75
2022/01/08 12:17:12;;;;;;;;;;;;;;;21.78;29.17;97696.09;5035553;28;1008;-75
2022/01/08 12:19:38;;;;;;;;;;;;;;;21.50;29.48;97697.78;4995361;28;1133;-75
2022/01/08 12:22:15;;;;;;;;;;;;;;;22.15;28.10;97686.00;4996236;28;971;-75
2022/01/08 12:24:41;;;;;;;;;;;;;;;22.14;28.48;97690.09;4995338;28;1015;-75
2022/01/08 12:27:18;;;;;;;;;;;;;;;22.21;28.03;97689.84;4999397;28;989;-75
2022/01/08 12:29:44;;;;;;;;;;;;;;;22.12;28.14;97678.41;5054548;28;1057;-75
2022/01/08 12:32:33;;;;;;;;;;;;;;;22.17;28.16;97689.16;5057639;28;971;-76
2022/01/08 12:35:19;;;;;;;;;;;;;;;22.22;28.40;97682.91;5074435;28;1902;-75
2022/01/08 12:37:46;;;;;;;;;;;;;;;21.89;28.63;97685.22;5074827;28;986;-75
2022/01/08 12:40:12;;;;;;;;;;;;;;;22.24;28.16;97688.94;5074332;28;1174;-75
2022/01/08 12:42:38;;;;;;;;;;;;;;;22.26;28.00;97683.59;5058184;28;943;-75
2022/01/08 12:45:30;;;;;;;;;;;;;;;21.92;28.45;97684.31;5041394;28;987;-75
2022/01/08 12:48:04;;;;;;;;;;;;;;;21.97;28.63;97686.59;5074410;28;1044;-75
2022/01/08 12:50:34;;;;;;;;;;;;;;;22.18;28.05;97678.63;5074784;28;1161;-76
2022/01/08 12:53:05;;;;;;;;;;;;;;;22.22;27.90;97691.41;5074403;28;1983;-75
2022/01/08 12:55:34;;;;;;;;;;;;;;;21.33;29.61;97695.03;5074987;28;1100;-75
2022/01/08 12:57:59;;;;;;;;;;;;;;;21.75;28.85;97686.47;5033820;28;987;-76
2022/01/08 13:00:25;;;;;;;;;;;;;;;22.01;28.17;97673.06;5034910;28;1036;-75
2022/01/08 13:02:50;;;;;;;;;;;;;;;22.20;28.23;97679.75;5018122;28;1049;-75
2022/01/08 13:05:16;;;;;;;;;;;;;;;21.60;29.07;97685.31;5018604;28;937;-76
2022/01/08 13:07:48;;;;;;;;;;;;;;;21.97;28.59;97675.25;5036025;28;1177;-76
2022/01/08 13:10:13;;;;;;;;;;;;;;;22.03;28.32;97667.75;5034447;28;1067;-75
2022/01/08 13:12:39;;;;;;;;;;;;;;;22.20;28.05;97671.25;5035097;28;970;-75
2022/01/08 13:15:05;;;;;;;;;;;;;;;22.33;27.59;97666.34;5034393;28;1966;-76
2022/01/08 13:17:30;;;;;;;;;;;;;;;21.66;28.68;97663.72;5035469;28;1010;-75
2022/01/08 13:20:03;;;;;;;;;;;;;;;22.02;28.37;97660.50;5035077;28;971;-76
2022/01/08 13:22:28;;;;;;;;;;;;;;;22.08;27.94;97658.69;5035053;28;935;-75
2022/01/08 13:24:53;;;;;;;;;;;;;;;22.06;28.31;97649.81;5034180;28;1079;-76
2022/01/08 13:27:20;;;;;;;;;;;;;;;22.57;27.97;97657.41;5015278;28;1070;-76